Terminal Aerodrome Forecast
Issued by NWS Twin Cities, MN

Home | Current Version | Previous Version | Text Only | Print | Product List | Glossary Off
Versions: 1 2 3 4 5 6 7 8 9 10 11 12 13

000
FTUS43 KMPX 251700
TAFEAU
TAF
KEAU 251720Z 2518/2618 21009KT P6SM SCT030 SCT250
     FM252000 25010KT P6SM SCT030 SCT250
     FM260100 27004KT P6SM SCT150
     FM261500 31007KT P6SM SCT030 SCT250=

USA.gov is the U.S. government's official web portal to all federal, state and local government web resources and services.